Terminal Aerodrome Forecast
Issued by NWS

Home | Current Version | Previous Version | Text Only | Print | Product List | Glossary On
Versions: 1 2 3 4 5 6 7 8 9 10 11 12 13 14 15 16 17 18 19 20 21 22 23 24 25 26
000
FTUS43 KAPX 231250 AAB
TAFTVC
TAF AMD
KTVC 231250Z 2313/2412 00000KT 1/4SM FG OVC002
     FM231400 00000KT 3/4SM BR OVC004
     FM231600 VRB03KT 2SM -RA BR OVC008
     FM240000 00000KT 2SM BR VCSH OVC003
     FM240600 00000KT 1SM BR VCSH OVC003=

USA.gov is the U.S. government's official web portal to all federal, state and local government web resources and services.